createdAt,value
2023-08-11T00:02:59.628Z,2.00
2023-08-11T00:08:06.770Z,1.70
2023-08-11T00:18:17.379Z,1.83
2023-08-11T00:23:22.208Z,2.03
2023-08-11T00:28:28.300Z,2.00
2023-08-11T00:33:31.954Z,1.90
2023-08-11T00:38:40.704Z,2.10
2023-08-11T00:43:44.284Z,2.00
2023-08-11T00:48:52.129Z,2.00
2023-08-11T00:53:58.786Z,2.20
2023-08-11T00:59:03.345Z,1.80
2023-08-11T01:04:08.281Z,2.00
2023-08-11T01:09:29.408Z,2.08
2023-08-11T01:14:45.078Z,2.10
2023-08-11T01:19:49.295Z,1.80
2023-08-11T01:24:54.567Z,2.20
2023-08-11T01:29:58.033Z,1.80
2023-08-11T01:35:01.476Z,1.80
2023-08-11T01:40:11.865Z,1.73
2023-08-11T01:45:17.086Z,1.80
2023-08-11T01:50:21.995Z,1.80
2023-08-11T01:55:29.987Z,1.83
2023-08-11T02:00:33.747Z,1.70
2023-08-11T02:05:37.925Z,1.80
2023-08-11T02:10:42.724Z,1.90
2023-08-11T02:15:46.222Z,1.92
2023-08-11T02:20:49.687Z,1.77
2023-08-11T02:25:54.525Z,1.60
2023-08-11T02:30:57.994Z,1.58
2023-08-11T02:36:01.466Z,1.77
2023-08-11T02:41:06.332Z,1.80
2023-08-11T02:46:12.319Z,1.67
2023-08-11T02:51:15.850Z,1.88
2023-08-11T02:56:20.675Z,1.70
2023-08-11T03:01:24.184Z,1.80
2023-08-11T03:06:29.028Z,1.80
2023-08-11T03:11:34.022Z,1.60
2023-08-11T03:16:37.503Z,1.67
2023-08-11T03:21:41.624Z,1.60
2023-08-11T03:26:46.468Z,1.67
2023-08-11T03:31:51.216Z,1.60
2023-08-11T03:36:55.144Z,1.60
2023-08-11T03:42:00.037Z,1.52
2023-08-11T03:47:06.612Z,1.27
2023-08-11T03:52:10.480Z,1.50
2023-08-11T03:57:17.224Z,1.40
2023-08-11T04:02:21.008Z,1.80
2023-08-11T04:07:24.542Z,1.52
2023-08-11T04:12:29.469Z,1.60
2023-08-11T04:17:34.973Z,1.58
2023-08-11T04:22:39.509Z,1.40
2023-08-11T04:27:46.082Z,1.58
2023-08-11T04:32:51.871Z,1.55
2023-08-11T04:37:55.595Z,1.50
2023-08-11T04:43:03.621Z,1.25
2023-08-11T04:48:12.575Z,1.50
2023-08-11T04:53:22.238Z,1.48
2023-08-11T04:58:27.408Z,1.60
2023-08-11T05:03:33.784Z,1.50
2023-08-11T05:08:37.922Z,1.42
2023-08-11T05:13:42.870Z,1.42
2023-08-11T05:18:46.348Z,1.73
2023-08-11T05:23:49.864Z,1.40
2023-08-11T05:28:54.769Z,1.50
2023-08-11T05:33:58.264Z,1.33
2023-08-11T05:39:01.725Z,1.42
2023-08-11T05:44:07.670Z,1.50
2023-08-11T05:49:11.181Z,1.40
2023-08-11T05:54:14.631Z,1.50
2023-08-11T05:59:19.492Z,1.42
2023-08-11T06:04:22.948Z,1.70
2023-08-11T06:09:26.417Z,1.60
2023-08-11T06:14:31.252Z,1.67
2023-08-11T06:19:34.665Z,1.60
2023-08-11T06:24:38.167Z,1.90
2023-08-11T06:29:43.195Z,1.75
2023-08-11T06:34:46.661Z,2.05
2023-08-11T06:39:50.961Z,1.70
2023-08-11T06:44:55.802Z,1.67
2023-08-11T06:49:59.473Z,1.70
2023-08-11T06:55:04.336Z,1.58
2023-08-11T07:00:11.451Z,1.85
2023-08-11T07:05:15.132Z,1.60
2023-08-11T07:10:18.830Z,1.65
2023-08-11T07:15:24.005Z,1.50
2023-08-11T07:20:27.615Z,1.60
2023-08-11T07:25:31.068Z,1.67
2023-08-11T07:30:37.323Z,1.60
2023-08-11T07:35:40.898Z,1.60
2023-08-11T07:40:44.482Z,1.55
2023-08-11T07:45:49.280Z,1.65
2023-08-11T07:50:53.051Z,1.70
2023-08-11T07:55:56.553Z,1.63
2023-08-11T08:01:02.809Z,1.52
2023-08-11T08:06:07.632Z,1.52
2023-08-11T08:11:11.082Z,1.60
2023-08-11T08:16:16.239Z,1.50
2023-08-11T08:21:19.717Z,1.60
2023-08-11T08:26:23.138Z,1.42
2023-08-11T08:31:28.112Z,1.52
2023-08-11T08:36:31.579Z,1.50
2023-08-11T08:41:39.897Z,1.60
2023-08-11T08:46:45.491Z,1.60
2023-08-11T08:51:49.409Z,1.42
2023-08-11T08:56:54.789Z,1.50
2023-08-11T09:02:01.009Z,1.38
2023-08-11T09:07:05.998Z,1.40
2023-08-11T09:12:10.436Z,1.45
2023-08-11T09:17:15.624Z,1.30
2023-08-11T09:22:19.072Z,1.50
2023-08-11T09:27:23.184Z,1.50
2023-08-11T09:32:28.290Z,1.50
2023-08-11T09:37:32.800Z,1.58
2023-08-11T09:42:36.317Z,1.40
2023-08-11T09:47:41.249Z,1.52
2023-08-11T09:52:46.401Z,1.55
2023-08-11T09:57:51.203Z,1.33
2023-08-11T10:03:04.145Z,1.40
2023-08-11T10:08:14.179Z,1.42
2023-08-11T10:13:23.842Z,1.55
2023-08-11T10:18:29.746Z,1.48
2023-08-11T10:23:34.452Z,1.40
2023-08-11T10:28:39.001Z,1.45
2023-08-11T10:33:51.833Z,1.40
2023-08-11T10:39:04.722Z,1.33
2023-08-11T10:44:08.420Z,1.60
2023-08-11T10:49:35.167Z,1.30
2023-08-11T10:54:38.669Z,1.50
2023-08-11T10:59:42.093Z,1.40
2023-08-11T11:04:47.081Z,1.70
2023-08-11T11:09:50.572Z,1.40
2023-08-11T11:14:54.003Z,1.40
2023-08-11T11:20:01.033Z,1.50
2023-08-11T11:25:07.918Z,1.40
2023-08-11T11:30:13.418Z,1.60
2023-08-11T11:35:18.947Z,1.33
2023-08-11T11:40:22.513Z,1.50
2023-08-11T11:45:27.402Z,1.50
2023-08-11T11:50:32.335Z,1.48
2023-08-11T11:55:46.373Z,1.52
2023-08-11T12:00:50.128Z,1.40
2023-08-11T12:05:56.052Z,1.30
2023-08-11T12:11:02.233Z,1.60
2023-08-11T12:16:05.723Z,1.60
2023-08-11T12:21:10.959Z,1.40
2023-08-11T12:26:14.387Z,1.50
2023-08-11T12:31:17.974Z,1.40
2023-08-11T12:36:22.777Z,1.40
2023-08-11T12:41:26.222Z,1.40
2023-08-11T12:46:30.517Z,1.50
2023-08-11T12:51:36.257Z,1.30
2023-08-11T12:56:39.773Z,1.50
2023-08-11T13:01:43.448Z,1.60
2023-08-11T13:06:48.299Z,1.53
2023-08-11T13:11:51.885Z,1.40
2023-08-11T13:16:55.306Z,1.63
2023-08-11T13:22:05.573Z,1.55
2023-08-11T13:27:10.240Z,1.48
2023-08-11T13:32:13.738Z,1.55
2023-08-11T13:37:18.625Z,1.50
2023-08-11T13:42:22.167Z,1.60
2023-08-11T13:47:27.119Z,1.60
2023-08-11T13:52:32.019Z,1.65
2023-08-11T13:57:35.741Z,1.60
2023-08-11T14:02:39.337Z,1.60
2023-08-11T14:07:44.245Z,1.60
2023-08-11T14:12:47.754Z,1.48
2023-08-11T14:17:51.294Z,1.67
2023-08-11T14:22:56.131Z,1.65
2023-08-11T14:27:59.654Z,1.70
2023-08-11T14:33:03.226Z,1.48
2023-08-11T14:38:08.177Z,1.50
2023-08-11T14:43:13.236Z,1.60
2023-08-11T14:53:24.819Z,1.50
2023-08-11T14:58:29.043Z,1.80
2023-08-11T15:03:32.607Z,1.55
2023-08-11T15:08:37.658Z,1.60
2023-08-11T15:13:41.219Z,1.60
2023-08-11T15:18:44.651Z,1.60
2023-08-11T15:23:49.591Z,1.50
2023-08-11T15:28:53.288Z,1.60
2023-08-11T15:33:56.793Z,1.80
2023-08-11T15:39:01.689Z,1.70
2023-08-11T15:44:05.941Z,1.90
2023-08-11T15:49:09.384Z,1.88
2023-08-11T15:54:14.191Z,2.00
2023-08-11T15:59:17.847Z,3.00
2023-08-11T16:04:21.382Z,3.80
2023-08-11T16:09:26.388Z,4.82
2023-08-11T16:14:29.825Z,4.88
2023-08-11T16:19:35.955Z,5.45
2023-08-11T16:24:40.949Z,6.55
2023-08-11T16:29:44.370Z,6.55
2023-08-11T16:34:47.865Z,7.75
2023-08-11T16:39:52.689Z,7.53
2023-08-11T16:44:56.131Z,8.25
2023-08-11T16:49:59.647Z,7.88
2023-08-11T16:55:04.840Z,8.40
2023-08-11T17:00:12.081Z,8.00
2023-08-11T17:05:15.612Z,7.88
2023-08-11T17:10:20.516Z,8.15
2023-08-11T17:15:24.711Z,7.90
2023-08-11T17:20:28.194Z,7.20
2023-08-11T17:25:33.008Z,7.28
2023-08-11T17:30:36.449Z,7.22
2023-08-11T17:35:40.477Z,7.57
2023-08-11T17:40:45.300Z,6.53
2023-08-11T17:45:48.962Z,6.95
2023-08-11T17:50:52.510Z,6.70
2023-08-11T17:55:57.410Z,6.22
2023-08-11T18:01:00.879Z,6.68
2023-08-11T18:06:04.429Z,6.20
2023-08-11T18:11:09.238Z,6.25
2023-08-11T18:16:12.740Z,6.30
2023-08-11T18:21:21.036Z,6.15
2023-08-11T18:26:26.478Z,6.10
2023-08-11T18:31:30.347Z,5.97
2023-08-11T18:36:33.873Z,5.97
2023-08-11T18:41:39.028Z,6.10
2023-08-11T18:46:42.549Z,5.78
2023-08-11T18:51:46.462Z,5.45
2023-08-11T18:56:51.327Z,5.47
2023-08-11T19:01:54.887Z,5.60
2023-08-11T19:06:58.523Z,5.22
2023-08-11T19:12:03.361Z,5.90
2023-08-11T19:17:06.930Z,5.18
2023-08-11T19:22:10.968Z,5.00
2023-08-11T19:27:16.128Z,5.38
2023-08-11T19:32:19.608Z,5.35
2023-08-11T19:37:23.037Z,5.20
2023-08-11T19:42:27.932Z,5.20
2023-08-11T19:47:31.498Z,5.10
2023-08-11T19:52:35.809Z,4.95
2023-08-11T19:57:40.695Z,4.85
2023-08-11T20:02:44.215Z,4.90
2023-08-11T20:07:47.755Z,4.38
2023-08-11T20:12:52.628Z,4.78
2023-08-11T20:17:56.290Z,5.88
2023-08-11T20:23:00.123Z,5.70
2023-08-11T20:28:06.037Z,5.13
2023-08-11T20:33:10.428Z,5.60
2023-08-11T20:38:14.140Z,5.10
2023-08-11T20:43:18.921Z,5.30
2023-08-11T20:48:22.874Z,5.22
2023-08-11T20:53:26.418Z,5.47
2023-08-11T20:58:31.446Z,5.40
2023-08-11T21:03:34.942Z,5.18
2023-08-11T21:08:48.016Z,4.95
2023-08-11T21:13:52.833Z,4.85
2023-08-11T21:18:56.851Z,5.18
2023-08-11T21:24:00.305Z,4.63
2023-08-11T21:29:05.653Z,4.63
2023-08-11T21:34:11.102Z,5.30
2023-08-11T21:39:14.579Z,4.50
2023-08-11T21:44:20.201Z,4.60
2023-08-11T21:49:23.927Z,4.68
2023-08-11T21:54:27.393Z,5.05
2023-08-11T21:59:32.492Z,4.47
2023-08-11T22:04:37.987Z,4.37
2023-08-11T22:09:42.723Z,4.55
2023-08-11T22:14:47.674Z,4.53
2023-08-11T22:19:53.285Z,4.35
2023-08-11T22:25:01.258Z,4.25
2023-08-11T22:30:09.512Z,4.47
2023-08-11T22:35:13.761Z,4.28
2023-08-11T22:40:17.411Z,4.20
2023-08-11T22:45:22.406Z,4.40
2023-08-11T22:50:25.849Z,4.25
2023-08-11T22:55:32.861Z,4.18
2023-08-11T23:05:41.095Z,4.35
2023-08-11T23:10:44.592Z,3.80
2023-08-11T23:15:49.732Z,4.03
2023-08-11T23:20:53.227Z,3.72
2023-08-11T23:25:56.765Z,3.53
2023-08-11T23:31:01.675Z,3.55
2023-08-11T23:36:05.949Z,3.90
2023-08-11T23:41:09.523Z,3.60
2023-08-11T23:46:15.653Z,3.70
2023-08-11T23:51:19.287Z,4.07
2023-08-11T23:56:22.820Z,3.40
